createdAt,value
2018-12-14T00:00:31.551Z,32.23
2018-12-14T00:05:49.037Z,27.57
2018-12-14T00:11:06.510Z,31.33
2018-12-14T00:16:23.974Z,34.03
2018-12-14T00:21:41.440Z,37.47
2018-12-14T00:26:59.197Z,33.33
2018-12-14T00:32:16.749Z,33.17
2018-12-14T00:37:34.231Z,29.73
2018-12-14T00:42:51.709Z,33.13
2018-12-14T00:48:09.181Z,35.43
2018-12-14T00:53:26.676Z,33.90
2018-12-14T00:58:44.547Z,37.87
2018-12-14T01:04:02.147Z,46.83
2018-12-14T01:09:19.612Z,35.37
2018-12-14T01:14:37.076Z,37.48
2018-12-14T01:19:54.576Z,38.83
2018-12-14T01:25:12.046Z,39.03
2018-12-14T01:30:29.645Z,35.00
2018-12-14T01:35:47.136Z,34.60
2018-12-14T01:41:04.609Z,37.50
2018-12-14T01:46:22.090Z,40.93
2018-12-14T01:51:39.556Z,42.50
2018-12-14T01:56:57.024Z,38.50
2018-12-14T02:02:14.603Z,34.23
2018-12-14T02:07:32.076Z,35.77
2018-12-14T02:12:49.658Z,42.10
2018-12-14T02:18:07.563Z,42.77
2018-12-14T02:23:25.123Z,42.53
2018-12-14T02:28:42.595Z,43.27
2018-12-14T02:34:00.085Z,36.10
2018-12-14T02:39:17.570Z,41.27
2018-12-14T02:44:35.045Z,40.03
2018-12-14T02:49:52.509Z,37.97
2018-12-14T02:55:10.007Z,39.13
2018-12-14T03:00:27.575Z,31.83
2018-12-14T03:05:45.061Z,38.63
2018-12-14T03:11:02.525Z,39.23
2018-12-14T03:16:20.015Z,29.00
2018-12-14T03:21:37.488Z,36.87
2018-12-14T03:26:54.957Z,37.33
2018-12-14T03:32:12.440Z,33.93
2018-12-14T03:37:29.917Z,32.63
2018-12-14T03:42:47.394Z,30.83
2018-12-14T03:48:04.853Z,31.70
2018-12-14T03:53:23.216Z,31.13
2018-12-14T03:58:40.677Z,31.10
2018-12-14T04:03:58.152Z,29.17
2018-12-14T04:09:15.614Z,36.00
2018-12-14T04:14:33.078Z,31.87
2018-12-14T04:19:50.548Z,37.53
2018-12-14T04:25:08.042Z,26.97
2018-12-14T04:30:25.663Z,32.40
2018-12-14T04:35:43.213Z,28.47
2018-12-14T04:41:00.692Z,30.20
2018-12-14T04:46:18.170Z,33.50
2018-12-14T04:51:35.645Z,30.47
2018-12-14T04:56:53.118Z,36.33
2018-12-14T05:02:10.584Z,34.90
2018-12-14T05:07:28.046Z,36.75
2018-12-14T05:12:45.517Z,39.13
2018-12-14T05:18:02.988Z,33.67
2018-12-14T05:23:20.457Z,32.33
2018-12-14T05:28:37.932Z,35.20
2018-12-14T05:33:55.401Z,35.80
2018-12-14T05:39:13.107Z,35.17
2018-12-14T05:44:30.593Z,32.63
2018-12-14T05:49:48.073Z,32.80
2018-12-14T05:55:05.643Z,32.40
2018-12-14T06:00:23.118Z,33.97
2018-12-14T06:05:41.139Z,39.93
2018-12-14T06:10:58.782Z,32.03
2018-12-14T06:16:16.249Z,37.67
2018-12-14T06:21:33.712Z,39.00
2018-12-14T06:26:51.174Z,37.97
2018-12-14T06:32:08.644Z,41.27
2018-12-14T06:37:26.400Z,33.80
2018-12-14T06:42:43.869Z,52.43
2018-12-14T06:48:01.328Z,40.33
2018-12-14T06:53:18.892Z,35.97
2018-12-14T06:58:36.353Z,31.07
2018-12-14T07:03:53.822Z,35.57
2018-12-14T07:09:11.282Z,32.80
2018-12-14T07:14:28.740Z,35.47
2018-12-14T07:19:46.206Z,39.97
2018-12-14T07:25:04.568Z,35.93
2018-12-14T07:30:22.129Z,38.77
2018-12-14T07:35:42.099Z,34.37
2018-12-14T07:40:59.198Z,44.63
2018-12-14T07:46:17.048Z,43.50
2018-12-14T07:51:34.526Z,38.30
2018-12-14T07:56:52.012Z,44.60
2018-12-14T08:02:09.589Z,42.07
2018-12-14T08:07:27.058Z,34.73
2018-12-14T08:12:44.527Z,40.03
2018-12-14T08:18:01.984Z,37.90
2018-12-14T08:23:19.458Z,32.93
2018-12-14T08:28:36.918Z,42.90
2018-12-14T08:33:54.403Z,51.57
2018-12-14T08:39:11.871Z,44.87
2018-12-14T08:44:29.333Z,43.30
2018-12-14T08:49:46.825Z,43.23
2018-12-14T08:55:05.092Z,39.60
2018-12-14T09:00:22.559Z,36.42
2018-12-14T09:05:40.028Z,41.33
2018-12-14T09:10:57.501Z,36.23
2018-12-14T09:16:15.077Z,36.00
2018-12-14T09:21:32.577Z,39.10
2018-12-14T09:26:50.039Z,39.77
2018-12-14T09:32:07.515Z,41.27
2018-12-14T09:37:24.973Z,38.50
2018-12-14T09:42:42.436Z,38.53
2018-12-14T09:47:59.947Z,30.55
2018-12-14T09:53:17.414Z,37.40
2018-12-14T09:58:34.868Z,35.15
2018-12-14T10:03:52.622Z,35.47
2018-12-14T10:09:10.086Z,34.07
2018-12-14T10:14:27.571Z,29.87
2018-12-14T10:19:45.041Z,35.50
2018-12-14T10:25:02.589Z,32.77
2018-12-14T10:30:20.062Z,33.28
2018-12-14T10:35:37.538Z,30.93
2018-12-14T10:40:55.013Z,33.33
2018-12-14T10:46:12.504Z,29.97
2018-12-14T10:51:30.272Z,32.78
2018-12-14T10:56:47.738Z,32.97
2018-12-14T11:02:05.304Z,27.07
2018-12-14T11:07:22.773Z,33.73
2018-12-14T11:12:40.334Z,31.70
2018-12-14T11:17:58.724Z,26.50
2018-12-14T11:23:16.288Z,26.73
2018-12-14T11:28:33.777Z,28.73
2018-12-14T11:33:51.257Z,27.58
2018-12-14T11:39:08.719Z,29.10
2018-12-14T11:44:26.181Z,28.07
2018-12-14T11:49:43.646Z,25.40
2018-12-14T11:55:01.118Z,25.47
2018-12-14T12:00:18.626Z,24.80
2018-12-14T12:05:36.290Z,27.43
2018-12-14T12:10:53.754Z,28.25
2018-12-14T12:16:11.219Z,23.87
2018-12-14T12:21:28.992Z,29.23
2018-12-14T12:26:46.470Z,23.43
2018-12-14T12:32:04.017Z,30.37
2018-12-14T12:37:21.483Z,28.83
2018-12-14T12:42:38.956Z,26.70
2018-12-14T12:47:56.421Z,27.37
2018-12-14T12:53:15.897Z,29.43
2018-12-14T12:58:33.373Z,26.73
2018-12-14T13:03:50.841Z,28.57
2018-12-14T13:09:08.480Z,25.80
2018-12-14T13:14:26.011Z,28.77
2018-12-14T13:19:43.472Z,28.43
2018-12-14T13:25:00.940Z,27.07
2018-12-14T13:30:18.424Z,26.57
2018-12-14T13:35:35.889Z,27.57
2018-12-14T13:40:53.796Z,26.30
2018-12-14T13:46:11.307Z,32.07
2018-12-14T13:51:28.771Z,33.53
2018-12-14T13:56:46.242Z,27.37
2018-12-14T14:02:03.712Z,30.63
2018-12-14T14:07:21.177Z,33.50
2018-12-14T14:12:38.640Z,32.30
2018-12-14T14:17:56.112Z,25.83
2018-12-14T14:23:13.586Z,29.07
2018-12-14T14:28:31.058Z,26.50
2018-12-14T14:33:48.536Z,29.47
2018-12-14T14:39:06.902Z,30.83
2018-12-14T14:44:24.401Z,29.23
2018-12-14T14:49:41.884Z,33.07
2018-12-14T14:54:59.520Z,30.35
2018-12-14T15:00:16.980Z,27.57
2018-12-14T15:05:34.454Z,31.00
2018-12-14T15:10:51.943Z,34.33
2018-12-14T15:16:09.430Z,46.17
2018-12-14T15:21:27.018Z,36.80
2018-12-14T15:26:44.557Z,26.53
2018-12-14T15:32:02.467Z,32.13
2018-12-14T15:37:19.920Z,31.02
2018-12-14T15:42:37.388Z,29.83
2018-12-14T15:47:54.865Z,33.20
2018-12-14T15:53:12.334Z,27.07
2018-12-14T15:58:29.793Z,30.50
2018-12-14T16:03:47.249Z,32.40
2018-12-14T16:09:05.795Z,28.83
2018-12-14T16:14:23.287Z,33.47
2018-12-14T16:19:40.754Z,32.00
2018-12-14T16:24:58.235Z,30.50
2018-12-14T16:30:15.706Z,28.70
2018-12-14T16:35:33.176Z,33.13
2018-12-14T16:40:50.636Z,49.43
2018-12-14T16:46:08.111Z,38.90
2018-12-14T16:51:25.672Z,41.47
2018-12-14T16:56:43.134Z,29.97
2018-12-14T17:02:00.704Z,27.90
2018-12-14T17:07:18.173Z,35.90
2018-12-14T17:12:35.644Z,43.87
2018-12-14T17:17:53.217Z,40.83
2018-12-14T17:23:10.686Z,36.40
2018-12-14T17:28:28.152Z,32.13
2018-12-14T17:33:45.636Z,28.27
2018-12-14T17:39:04.587Z,36.43
2018-12-14T17:44:22.052Z,37.70
2018-12-14T17:49:39.526Z,32.53
2018-12-14T17:54:56.999Z,34.57
2018-12-14T18:00:14.467Z,34.98
2018-12-14T18:05:31.945Z,34.43
2018-12-14T18:10:49.408Z,36.10
2018-12-14T18:16:07.274Z,30.35
2018-12-14T18:21:24.743Z,32.93
2018-12-14T18:26:42.338Z,35.60
2018-12-14T18:31:59.804Z,35.20
2018-12-14T18:37:17.353Z,31.53
2018-12-14T18:42:34.839Z,33.07
2018-12-14T18:47:52.354Z,32.87
2018-12-14T18:53:09.812Z,32.73
2018-12-14T18:58:27.282Z,35.43
2018-12-14T19:03:44.854Z,33.27
2018-12-14T19:09:02.713Z,25.30
2018-12-14T19:14:20.191Z,33.20
2018-12-14T19:19:37.730Z,29.57
2018-12-14T19:24:55.239Z,26.77
2018-12-14T19:30:12.713Z,24.32
2018-12-14T19:35:30.272Z,20.83
2018-12-14T19:40:47.731Z,17.37
2018-12-14T19:46:06.496Z,14.77
2018-12-14T19:51:24.271Z,19.83
2018-12-14T19:56:42.324Z,21.93
2018-12-14T20:01:59.793Z,13.77
2018-12-14T20:07:17.253Z,17.20
2018-12-14T20:12:34.790Z,20.10
2018-12-14T20:17:52.306Z,19.07
2018-12-14T20:23:09.765Z,15.97
2018-12-14T20:28:27.230Z,20.23
2018-12-14T20:33:44.684Z,19.80
2018-12-14T20:39:02.193Z,24.10
2018-12-14T20:44:19.668Z,16.87
2018-12-14T20:49:37.130Z,20.17
2018-12-14T20:54:55.111Z,20.17
2018-12-14T21:00:12.749Z,16.55
2018-12-14T21:05:30.231Z,17.53
2018-12-14T21:10:47.697Z,18.90
2018-12-14T21:16:05.166Z,16.07
2018-12-14T21:21:22.647Z,17.97
2018-12-14T21:26:40.105Z,16.43
2018-12-14T21:31:57.579Z,21.43
2018-12-14T21:37:15.041Z,16.63
2018-12-14T21:42:32.515Z,18.80
2018-12-14T21:47:49.979Z,14.60
2018-12-14T21:53:07.468Z,16.90
2018-12-14T21:58:24.969Z,17.47
2018-12-14T22:03:42.449Z,15.77
2018-12-14T22:08:59.901Z,16.70
2018-12-14T22:14:17.373Z,16.70
2018-12-14T22:19:34.852Z,20.90
2018-12-14T22:24:52.329Z,17.77
2018-12-14T22:30:09.977Z,12.53
2018-12-14T22:35:27.468Z,20.20
2018-12-14T22:40:44.928Z,17.47
2018-12-14T22:46:02.390Z,19.37
2018-12-14T22:51:19.845Z,15.73
2018-12-14T22:56:37.306Z,19.20
2018-12-14T23:01:54.821Z,14.17
2018-12-14T23:07:12.286Z,18.17
2018-12-14T23:12:29.748Z,16.00
2018-12-14T23:17:47.218Z,15.30
2018-12-14T23:23:04.676Z,16.47
2018-12-14T23:28:22.142Z,15.30
2018-12-14T23:33:39.605Z,14.37
2018-12-14T23:38:57.069Z,18.63
2018-12-14T23:44:14.530Z,14.83
2018-12-14T23:49:31.997Z,14.38
2018-12-14T23:54:49.469Z,13.77
